Date,TemperatureHighF,TemperatureAvgF,TemperatureLowF,DewpointHighF,DewpointAvgF,DewpointLowF,HumidityHigh,HumidityAvg,HumidityLow,PressureMaxIn,PressureMinIn,WindSpeedMaxMPH,WindSpeedAvgMPH,GustSpeedMaxMPH,PrecipitationSumIn
2013-2-1,14.3,7.8,0.7,10.0,0.7,-5.0,90,77,62,30.12,29.88,0,0,0,0.00
2013-2-2,23.8,18.9,13.4,20.0,15.7,9.0,93,91,86,29.98,29.73,0,0,0,0.00
2013-2-3,22.1,15.3,8.9,15.0,8.9,3.0,88,79,64,29.85,29.73,0,0,0,0.00
2013-2-4,25.9,22.3,18.7,21.0,18.3,15.0,95,89,79,29.84,29.60,0,0,0,0.00
2013-2-5,29.3,24.8,17.8,27.0,20.9,15.0,95,89,75,29.83,29.57,0,0,0,0.01
2013-2-6,33.6,29.7,24.7,24.0,19.7,15.0,80,69,58,30.03,29.83,0,0,0,0.26
2013-2-7,40.2,33.2,28.6,33.0,27.4,23.0,98,83,64,29.93,29.59,0,0,0,0.21
2013-2-8,33.9,31.3,28.5,33.0,25.3,20.0,98,82,69,30.13,29.62,0,0,0,0.00
2013-2-9,35.0,28.6,20.6,24.0,20.9,16.0,90,76,65,30.17,29.90,0,0,0,0.01
2013-2-10,49.6,39.0,30.9,46.0,33.1,21.0,95,81,68,29.91,29.34,0,0,0,0.20
2013-2-11,49.2,34.2,28.9,45.0,23.6,19.0,85,68,60,29.78,29.35,0,0,0,0.00
2013-2-12,30.5,26.9,21.6,21.0,19.1,17.0,89,76,67,29.87,29.71,0,0,0,0.00
2013-2-13,43.7,31.4,20.2,30.0,24.3,17.0,94,80,55,29.72,29.49,0,0,0,0.00
2013-2-14,40.2,35.3,32.1,32.0,26.3,16.0,88,73,54,29.73,29.45,0,0,0,0.00
2013-2-15,32.0,27.1,22.4,25.0,16.5,9.0,89,68,50,29.93,29.73,0,0,0,0.00
2013-2-16,23.7,17.9,15.2,18.0,8.6,2.0,89,70,55,29.92,29.86,0,0,0,0.00
2013-2-17,28.0,21.2,12.6,12.0,8.0,2.0,81,61,37,30.00,29.88,0,0,0,0.01
2013-2-18,51.7,39.0,24.1,43.0,28.4,11.0,91,68,55,29.88,29.20,0,0,0,0.23
2013-2-19,34.1,17.6,13.0,32.0,11.2,4.0,93,79,68,29.90,29.28,0,0,0,0.07
2013-2-20,22.2,17.1,12.9,17.0,10.7,5.0,88,79,63,30.09,29.90,0,0,0,0.00
2013-2-21,25.7,23.6,21.2,18.0,16.8,14.0,86,78,73,30.13,29.78,0,0,0,0.00
2013-2-22,32.7,27.0,20.6,32.0,23.1,17.0,97,90,75,29.79,29.60,0,0,0,0.03
2013-2-23,27.2,25.5,23.9,22.0,17.8,14.0,85,76,64,29.73,29.67,0,0,0,0.00
2013-2-24,36.9,26.8,17.0,22.0,17.9,13.0,91,73,52,29.95,29.73,0,0,0,0.01
2013-2-25,40.4,31.5,21.3,25.0,22.2,18.0,92,73,53,29.96,29.75,0,0,0,0.00
2013-2-26,33.5,32.2,30.7,31.0,26.3,20.0,96,83,62,29.75,29.23,0,0,0,0.30
2013-2-27,34.2,32.3,31.5,33.0,30.5,30.0,98,97,94,29.40,29.24,0,0,0,0.54
2013-2-28,35.7,32.8,29.9,33.0,29.2,24.0,98,90,79,29.77,29.40,0,0,0,0.06